createdAt,value
2022-12-11T00:04:09.634Z,72.03
2022-12-11T00:09:08.477Z,73.59
2022-12-11T00:14:07.240Z,73.58
2022-12-11T00:19:06.334Z,72.96
2022-12-11T00:24:05.554Z,72.86
2022-12-11T00:29:04.586Z,73.87
2022-12-11T00:34:03.316Z,72.34
2022-12-11T00:39:03.817Z,72.53
2022-12-11T00:44:02.654Z,74.66
2022-12-11T00:49:02.032Z,73.75
2022-12-11T00:54:00.825Z,76.31
2022-12-11T00:58:59.682Z,76.05
2022-12-11T01:03:58.441Z,75.55
2022-12-11T01:09:15.702Z,75.75
2022-12-11T01:14:14.690Z,75.47
2022-12-11T01:19:13.452Z,75.11
2022-12-11T01:24:12.163Z,75.19
2022-12-11T01:29:11.272Z,74.83
2022-12-11T01:34:10.235Z,83.66
2022-12-11T01:39:09.060Z,68.85
2022-12-11T01:44:13.951Z,71.23
2022-12-11T01:49:15.191Z,74.58
2022-12-11T01:54:17.426Z,74.29
2022-12-11T01:59:23.368Z,74.63
2022-12-11T02:04:23.384Z,74.10
2022-12-11T02:09:26.410Z,75.13
2022-12-11T02:14:34.418Z,73.80
2022-12-11T02:19:48.343Z,73.93
2022-12-11T02:25:05.783Z,73.75
2022-12-11T02:30:06.850Z,72.15
2022-12-11T02:35:19.216Z,72.64
2022-12-11T02:40:24.977Z,71.36
2022-12-11T02:45:26.238Z,71.21
2022-12-11T02:50:26.348Z,72.54
2022-12-11T02:55:28.667Z,71.85
2022-12-11T03:00:28.444Z,70.83
2022-12-11T03:05:27.985Z,73.44
2022-12-11T03:10:26.721Z,73.25
2022-12-11T03:15:42.241Z,71.53
2022-12-11T03:20:51.245Z,71.87
2022-12-11T03:26:06.186Z,73.22
2022-12-11T03:31:11.196Z,72.57
2022-12-11T03:36:19.114Z,71.26
2022-12-11T03:41:22.008Z,70.53
2022-12-11T03:46:30.190Z,70.40
2022-12-11T03:51:32.513Z,69.04
2022-12-11T03:56:34.985Z,69.89
2022-12-11T04:01:33.812Z,68.86
2022-12-11T04:06:32.611Z,71.39
2022-12-11T04:11:37.340Z,70.74
2022-12-11T04:16:36.156Z,72.12
2022-12-11T04:21:53.519Z,73.79
2022-12-11T04:26:52.300Z,74.24
2022-12-11T04:31:51.184Z,71.72
2022-12-11T04:36:50.555Z,70.12
2022-12-11T04:41:49.400Z,70.59
2022-12-11T04:46:48.235Z,72.15
2022-12-11T04:51:47.017Z,72.51
2022-12-11T04:56:45.827Z,73.79
2022-12-11T05:01:44.803Z,73.83
2022-12-11T05:06:43.919Z,71.73
2022-12-11T05:11:42.883Z,70.99
2022-12-11T05:16:41.632Z,71.71
2022-12-11T05:21:40.458Z,72.03
2022-12-11T05:26:39.227Z,71.69
2022-12-11T05:31:38.054Z,71.50
2022-12-11T05:36:37.009Z,72.58
2022-12-11T05:41:35.811Z,72.89
2022-12-11T05:46:35.704Z,76.13
2022-12-11T05:51:35.082Z,78.25
2022-12-11T05:56:35.930Z,77.86
2022-12-11T06:01:38.335Z,74.39
2022-12-11T06:06:37.799Z,72.55
2022-12-11T06:11:36.567Z,71.51
2022-12-11T06:16:35.530Z,71.58
2022-12-11T06:21:34.457Z,75.27
2022-12-11T06:26:33.318Z,76.14
2022-12-11T06:31:32.179Z,76.38
2022-12-11T06:36:30.964Z,77.68
2022-12-11T06:41:29.865Z,76.79
2022-12-11T06:46:28.832Z,76.22
2022-12-11T06:51:27.700Z,76.54
2022-12-11T06:56:26.526Z,77.78
2022-12-11T07:01:27.773Z,77.78
2022-12-11T07:06:28.443Z,77.25
2022-12-11T07:11:27.281Z,76.04
2022-12-11T07:16:26.389Z,76.26
2022-12-11T07:21:25.349Z,77.49
2022-12-11T07:26:24.157Z,78.36
2022-12-11T07:31:25.065Z,76.38
2022-12-11T07:36:24.532Z,76.03
2022-12-11T07:41:23.726Z,76.07
2022-12-11T07:46:27.745Z,76.57
2022-12-11T07:51:29.850Z,74.59
2022-12-11T07:56:30.376Z,74.42
2022-12-11T08:01:32.161Z,72.48
2022-12-11T08:06:33.574Z,75.59
2022-12-11T08:11:32.397Z,74.90
2022-12-11T08:16:31.939Z,74.60
2022-12-11T08:21:30.763Z,73.66
2022-12-11T08:26:33.703Z,75.07
2022-12-11T08:31:33.217Z,73.91
2022-12-11T08:36:32.662Z,73.23
2022-12-11T08:41:31.796Z,71.81
2022-12-11T08:46:32.638Z,72.18
2022-12-11T08:51:31.921Z,73.35
2022-12-11T08:56:30.850Z,75.85
2022-12-11T09:01:30.027Z,71.98
2022-12-11T09:06:30.712Z,73.16
2022-12-11T09:11:32.944Z,74.13
2022-12-11T09:16:32.525Z,74.42
2022-12-11T09:21:31.369Z,73.00
2022-12-11T09:26:31.388Z,75.72
2022-12-11T09:31:34.401Z,73.25
2022-12-11T09:36:33.996Z,72.89
2022-12-11T09:41:38.010Z,72.14
2022-12-11T09:46:39.141Z,72.83
2022-12-11T09:51:48.030Z,71.82
2022-12-11T09:57:02.360Z,71.89
2022-12-11T10:02:18.993Z,72.62
2022-12-11T10:07:30.879Z,70.44
2022-12-11T10:13:11.003Z,69.83
2022-12-11T10:18:15.910Z,70.10
2022-12-11T10:23:40.479Z,69.75
2022-12-11T10:28:39.535Z,69.61
2022-12-11T10:33:41.382Z,69.18
2022-12-11T10:38:47.863Z,67.63
2022-12-11T10:43:49.869Z,66.33
2022-12-11T10:48:55.415Z,66.56
2022-12-11T10:54:02.653Z,67.35
2022-12-11T10:59:05.410Z,67.19
2022-12-11T11:04:14.514Z,69.33
2022-12-11T11:09:35.606Z,69.79
2022-12-11T11:14:34.348Z,67.93
2022-12-11T11:19:36.953Z,67.71
2022-12-11T11:24:56.150Z,66.89
2022-12-11T11:29:58.371Z,68.06
2022-12-11T11:35:12.333Z,68.85
2022-12-11T11:40:22.059Z,69.15
2022-12-11T11:45:27.224Z,67.33
2022-12-11T11:50:33.837Z,66.26
2022-12-11T11:55:47.532Z,67.01
2022-12-11T12:00:46.413Z,67.60
2022-12-11T12:06:12.075Z,67.15
2022-12-11T12:11:30.905Z,67.22
2022-12-11T12:16:53.113Z,68.55
2022-12-11T12:21:53.245Z,92.90
2022-12-11T12:27:50.514Z,75.18
2022-12-11T12:32:39.936Z,59.49
2022-12-11T12:37:54.062Z,66.67
2022-12-11T12:42:55.835Z,69.03
2022-12-11T12:47:54.837Z,69.41
2022-12-11T12:52:56.226Z,68.74
2022-12-11T12:58:05.273Z,68.73
2022-12-11T13:03:17.933Z,69.01
2022-12-11T13:08:25.642Z,68.09
2022-12-11T13:13:38.118Z,67.20
2022-12-11T13:18:39.585Z,65.16
2022-12-11T13:23:40.335Z,65.07
2022-12-11T13:28:38.992Z,65.07
2022-12-11T13:33:51.225Z,64.65
2022-12-11T13:39:04.720Z,67.93
2022-12-11T13:44:05.650Z,66.92
2022-12-11T13:49:07.532Z,67.10
2022-12-11T13:54:19.645Z,69.68
2022-12-11T13:59:29.012Z,70.87
2022-12-11T14:04:29.164Z,70.43
2022-12-11T14:09:28.671Z,70.71
2022-12-11T14:14:43.614Z,70.54
2022-12-11T14:19:48.035Z,71.84
2022-12-11T14:24:55.988Z,72.63
2022-12-11T14:29:55.623Z,73.91
2022-12-11T14:34:55.387Z,73.22
2022-12-11T14:39:56.938Z,74.41
2022-12-11T14:45:03.292Z,73.85
2022-12-11T14:50:25.919Z,93.47
2022-12-11T14:55:28.629Z,74.84
2022-12-11T15:00:32.307Z,74.74
2022-12-11T15:05:37.195Z,74.82
2022-12-11T15:10:42.808Z,76.69
2022-12-11T15:15:48.288Z,75.12
2022-12-11T15:20:55.110Z,75.80
2022-12-11T15:25:56.791Z,73.88
2022-12-11T15:30:58.677Z,74.17
2022-12-11T15:36:06.126Z,73.99
2022-12-11T15:41:06.249Z,74.30
2022-12-11T15:46:05.849Z,75.66
2022-12-11T15:51:04.600Z,74.68
2022-12-11T15:56:03.410Z,74.18
2022-12-11T16:01:02.308Z,73.50
2022-12-11T16:06:01.199Z,73.64
2022-12-11T16:11:00.242Z,71.50
2022-12-11T16:15:59.463Z,72.53
2022-12-11T16:20:58.667Z,73.03
2022-12-11T16:25:57.702Z,72.35
2022-12-11T16:30:56.465Z,70.19
2022-12-11T16:35:55.574Z,69.62
2022-12-11T16:41:02.071Z,71.52
2022-12-11T16:46:00.965Z,71.87
2022-12-11T16:50:59.779Z,72.77
2022-12-11T16:55:58.800Z,72.83
2022-12-11T17:01:02.241Z,74.23
2022-12-11T17:06:01.256Z,75.64
2022-12-11T17:10:59.962Z,75.89
2022-12-11T17:15:58.933Z,73.79
2022-12-11T17:20:57.851Z,74.07
2022-12-11T17:25:56.793Z,74.85
2022-12-11T17:30:55.899Z,74.16
2022-12-11T17:35:55.398Z,73.80
2022-12-11T17:40:55.306Z,73.64
2022-12-11T17:45:55.445Z,73.54
2022-12-11T17:50:55.088Z,73.40
2022-12-11T17:55:54.025Z,74.64
2022-12-11T18:00:55.773Z,74.43
2022-12-11T18:05:56.983Z,74.61
2022-12-11T18:10:56.728Z,74.61
2022-12-11T18:16:25.787Z,93.47
2022-12-11T18:21:28.086Z,75.79
2022-12-11T18:26:27.442Z,59.71
2022-12-11T18:31:26.358Z,68.37
2022-12-11T18:36:25.420Z,70.60
2022-12-11T18:41:24.912Z,72.47
2022-12-11T18:46:24.366Z,71.26
2022-12-11T18:51:26.553Z,71.03
2022-12-11T18:56:25.272Z,72.08
2022-12-11T19:01:26.920Z,73.28
2022-12-11T19:06:30.221Z,72.96
2022-12-11T19:11:31.087Z,74.40
2022-12-11T19:16:35.859Z,71.68
2022-12-11T19:21:36.757Z,69.35
2022-12-11T19:26:36.580Z,70.75
2022-12-11T19:31:35.829Z,70.26
2022-12-11T19:36:36.661Z,72.62
2022-12-11T19:41:36.076Z,72.02
2022-12-11T19:46:35.874Z,73.28
2022-12-11T19:51:38.823Z,74.59
2022-12-11T19:56:38.103Z,73.65
2022-12-11T20:01:38.285Z,73.85
2022-12-11T20:06:39.457Z,75.52
2022-12-11T20:11:40.317Z,75.00
2022-12-11T20:17:09.393Z,75.74
2022-12-11T20:21:58.160Z,74.45
2022-12-11T20:26:57.463Z,74.25
2022-12-11T20:31:56.371Z,76.19
2022-12-11T20:36:56.441Z,77.31
2022-12-11T20:41:55.344Z,75.73
2022-12-11T20:46:54.305Z,75.10
2022-12-11T20:51:53.169Z,74.76
2022-12-11T20:56:51.900Z,76.29
2022-12-11T21:01:51.050Z,75.12
2022-12-11T21:06:55.131Z,76.75
2022-12-11T21:11:56.547Z,76.37
2022-12-11T21:16:55.611Z,76.82
2022-12-11T21:21:54.444Z,77.47
2022-12-11T21:26:55.767Z,78.23
2022-12-11T21:31:54.963Z,77.20
2022-12-11T21:36:57.204Z,77.89
2022-12-11T21:41:58.248Z,77.33
2022-12-11T21:46:57.282Z,78.86
2022-12-11T21:51:56.059Z,78.39
2022-12-11T21:56:55.116Z,77.61
2022-12-11T22:01:54.438Z,79.58
2022-12-11T22:06:53.433Z,78.56
2022-12-11T22:11:57.936Z,78.30
2022-12-11T22:16:58.988Z,77.62
2022-12-11T22:21:57.931Z,78.19
2022-12-11T22:26:56.892Z,78.10
2022-12-11T22:31:55.724Z,77.79
2022-12-11T22:36:54.508Z,78.71
2022-12-11T22:41:53.350Z,78.14
2022-12-11T22:46:52.048Z,90.99
2022-12-11T22:51:50.940Z,85.17
2022-12-11T22:56:50.276Z,76.77
2022-12-11T23:01:49.604Z,78.38
2022-12-11T23:06:48.428Z,78.24
2022-12-11T23:11:47.183Z,79.07
2022-12-11T23:16:45.981Z,80.31
2022-12-11T23:21:45.005Z,79.46
2022-12-11T23:26:44.200Z,79.04
2022-12-11T23:31:42.924Z,79.63
2022-12-11T23:36:41.735Z,79.03
2022-12-11T23:41:40.471Z,79.57
2022-12-11T23:46:39.301Z,79.90
2022-12-11T23:51:39.058Z,79.79
2022-12-11T23:56:38.767Z,80.40
